createdAt,value
2023-05-03T00:01:22.778Z,6.30
2023-05-03T00:03:27.840Z,6.20
2023-05-03T00:05:32.812Z,6.20
2023-05-03T00:07:37.704Z,6.20
2023-05-03T00:09:44.977Z,6.10
2023-05-03T00:11:52.215Z,6.10
2023-05-03T00:13:57.090Z,5.70
2023-05-03T00:16:02.136Z,5.50
2023-05-03T00:18:14.340Z,5.90
2023-05-03T00:20:20.812Z,5.90
2023-05-03T00:22:27.056Z,5.60
2023-05-03T00:24:32.187Z,5.80
2023-05-03T00:26:37.013Z,5.70
2023-05-03T00:28:41.927Z,5.50
2023-05-03T00:30:47.393Z,5.50
2023-05-03T00:32:52.341Z,5.50
2023-05-03T00:35:01.040Z,5.60
2023-05-03T00:37:06.386Z,5.50
2023-05-03T00:39:11.653Z,5.50
2023-05-03T00:41:16.494Z,5.30
2023-05-03T00:43:21.569Z,5.10
2023-05-03T00:45:29.914Z,5.10
2023-05-03T00:47:35.282Z,5.00
2023-05-03T00:49:41.600Z,5.00
2023-05-03T00:51:49.096Z,5.20
2023-05-03T00:53:54.866Z,5.40
2023-05-03T00:56:01.907Z,5.60
2023-05-03T00:58:06.773Z,5.50
2023-05-03T01:00:13.708Z,5.20
2023-05-03T01:02:18.867Z,4.60
2023-05-03T01:04:27.837Z,4.30
2023-05-03T01:06:37.728Z,4.80
2023-05-03T01:08:49.935Z,4.90
2023-05-03T01:11:00.391Z,4.90
2023-05-03T01:13:14.741Z,4.60
2023-05-03T01:15:31.013Z,4.20
2023-05-03T01:17:39.433Z,4.70
2023-05-03T01:19:47.391Z,5.00
2023-05-03T01:21:59.947Z,5.00
2023-05-03T01:24:14.099Z,4.70
2023-05-03T01:26:23.080Z,4.20
2023-05-03T01:28:28.551Z,4.80
2023-05-03T01:30:34.728Z,4.90
2023-05-03T01:32:52.322Z,4.80
2023-05-03T01:35:05.813Z,4.70
2023-05-03T01:37:13.663Z,4.80
2023-05-03T01:39:23.718Z,4.80
2023-05-03T01:41:32.074Z,4.70
2023-05-03T01:43:39.000Z,4.70
2023-05-03T01:45:47.658Z,4.50
2023-05-03T01:47:55.396Z,4.40
2023-05-03T01:50:04.691Z,4.50
2023-05-03T01:52:10.900Z,4.60
2023-05-03T01:54:16.379Z,4.10
2023-05-03T01:56:21.830Z,4.40
2023-05-03T01:58:29.895Z,4.40
2023-05-03T02:00:35.015Z,4.50
2023-05-03T02:02:40.893Z,4.60
2023-05-03T02:04:45.976Z,4.80
2023-05-03T02:06:51.354Z,4.30
2023-05-03T02:08:56.780Z,4.30
2023-05-03T02:11:01.666Z,4.20
2023-05-03T02:13:07.794Z,4.10
2023-05-03T02:15:16.072Z,4.20
2023-05-03T02:17:21.329Z,4.20
2023-05-03T02:19:27.184Z,4.30
2023-05-03T02:21:34.397Z,4.20
2023-05-03T02:23:40.776Z,4.20
2023-05-03T02:25:48.485Z,4.10
2023-05-03T02:27:53.324Z,4.10
2023-05-03T02:29:58.243Z,4.00
2023-05-03T02:32:08.773Z,3.90
2023-05-03T02:34:13.880Z,3.90
2023-05-03T02:36:23.327Z,4.00
2023-05-03T02:38:28.468Z,3.70
2023-05-03T02:40:37.125Z,4.10
2023-05-03T02:42:44.467Z,4.10
2023-05-03T02:44:53.417Z,4.20
2023-05-03T02:47:01.621Z,4.20
2023-05-03T02:49:09.498Z,4.20
2023-05-03T02:51:14.390Z,4.20
2023-05-03T02:53:19.358Z,3.90
2023-05-03T02:55:25.285Z,4.00
2023-05-03T02:57:30.454Z,4.20
2023-05-03T02:59:37.397Z,3.90
2023-05-03T03:01:44.705Z,3.90
2023-05-03T03:03:52.182Z,3.90
2023-05-03T03:06:00.028Z,3.80
2023-05-03T03:08:09.528Z,3.90
2023-05-03T03:10:16.121Z,3.90
2023-05-03T03:12:21.251Z,3.90
2023-05-03T03:14:26.660Z,4.00
2023-05-03T03:16:40.122Z,4.10
2023-05-03T03:18:46.771Z,4.10
2023-05-03T03:20:54.504Z,4.00
2023-05-03T03:23:05.101Z,3.80
2023-05-03T03:25:13.208Z,3.70
2023-05-03T03:27:18.071Z,4.00
2023-05-03T03:29:26.029Z,3.90
2023-05-03T03:31:32.128Z,3.60
2023-05-03T03:33:38.672Z,3.70
2023-05-03T03:35:50.306Z,3.60
2023-05-03T03:37:57.013Z,3.60
2023-05-03T03:40:06.316Z,3.60
2023-05-03T03:42:13.825Z,3.40
2023-05-03T03:44:18.796Z,3.60
2023-05-03T03:46:26.684Z,3.50
2023-05-03T03:48:35.438Z,3.60
2023-05-03T03:50:41.768Z,3.70
2023-05-03T03:52:48.635Z,3.60
2023-05-03T03:54:56.012Z,3.80
2023-05-03T03:57:04.804Z,3.70
2023-05-03T03:59:11.885Z,3.60
2023-05-03T04:01:19.827Z,3.50
2023-05-03T04:03:27.342Z,3.20
2023-05-03T04:05:32.348Z,3.50
2023-05-03T04:07:38.896Z,3.60
2023-05-03T04:09:44.924Z,3.40
2023-05-03T04:11:54.479Z,3.40
2023-05-03T04:14:03.744Z,3.00
2023-05-03T04:16:10.974Z,3.40
2023-05-03T04:18:16.237Z,3.40
2023-05-03T04:20:21.778Z,3.60
2023-05-03T04:22:31.473Z,3.40
2023-05-03T04:24:39.814Z,3.60
2023-05-03T04:26:47.278Z,3.60
2023-05-03T04:28:58.780Z,3.20
2023-05-03T04:31:06.400Z,3.40
2023-05-03T04:33:13.793Z,3.30
2023-05-03T04:35:19.940Z,3.50
2023-05-03T04:37:26.297Z,3.60
2023-05-03T04:39:34.896Z,3.50
2023-05-03T04:41:40.683Z,3.60
2023-05-03T04:43:46.471Z,3.70
2023-05-03T04:45:51.912Z,3.60
2023-05-03T04:48:05.946Z,3.60
2023-05-03T04:50:12.482Z,3.70
2023-05-03T04:52:22.074Z,3.70
2023-05-03T04:54:27.730Z,3.70
2023-05-03T04:56:37.317Z,3.80
2023-05-03T04:58:53.457Z,3.70
2023-05-03T05:00:59.401Z,3.60
2023-05-03T05:03:10.680Z,3.40
2023-05-03T05:05:18.207Z,3.30
2023-05-03T05:07:34.488Z,3.30
2023-05-03T05:09:41.852Z,3.50
2023-05-03T05:11:49.291Z,3.60
2023-05-03T05:13:54.342Z,3.70
2023-05-03T05:15:59.208Z,3.80
2023-05-03T05:18:04.101Z,3.70
2023-05-03T05:20:16.916Z,3.50
2023-05-03T05:22:28.232Z,3.40
2023-05-03T05:24:36.820Z,3.40
2023-05-03T05:26:41.827Z,3.50
2023-05-03T05:28:51.797Z,3.40
2023-05-03T05:30:56.997Z,3.60
2023-05-03T05:33:05.308Z,3.30
2023-05-03T05:35:13.830Z,3.40
2023-05-03T05:37:19.075Z,3.50
2023-05-03T05:39:25.161Z,3.70
2023-05-03T05:41:30.655Z,3.70
2023-05-03T05:43:36.081Z,3.70
2023-05-03T05:45:41.315Z,3.80
2023-05-03T05:47:47.553Z,3.90
2023-05-03T05:49:54.526Z,3.90
2023-05-03T05:52:03.391Z,3.90
2023-05-03T05:54:10.871Z,4.00
2023-05-03T05:56:16.425Z,4.20
2023-05-03T05:58:21.451Z,4.10
2023-05-03T06:00:35.339Z,4.00
2023-05-03T06:02:43.202Z,4.20
2023-05-03T06:04:51.954Z,4.10
2023-05-03T06:06:56.952Z,4.20
2023-05-03T06:09:16.756Z,4.20
2023-05-03T06:11:29.969Z,4.30
2023-05-03T06:13:38.725Z,4.40
2023-05-03T06:15:45.862Z,4.40
2023-05-03T06:17:50.848Z,4.50
2023-05-03T06:19:58.532Z,4.50
2023-05-03T06:22:05.805Z,4.60
2023-05-03T06:24:21.606Z,4.60
2023-05-03T06:26:31.607Z,4.60
2023-05-03T06:28:36.593Z,4.70
2023-05-03T06:30:42.905Z,4.80
2023-05-03T06:32:52.448Z,4.90
2023-05-03T06:34:59.877Z,4.90
2023-05-03T06:37:05.115Z,5.00
2023-05-03T06:39:14.062Z,5.00
2023-05-03T06:41:22.099Z,5.10
2023-05-03T06:43:27.181Z,5.10
2023-05-03T06:45:35.221Z,5.20
2023-05-03T06:47:45.072Z,5.20
2023-05-03T06:49:50.304Z,5.40
2023-05-03T06:51:55.379Z,5.40
2023-05-03T06:54:02.175Z,5.50
2023-05-03T06:56:08.066Z,5.60
2023-05-03T06:58:16.855Z,5.60
2023-05-03T07:00:23.701Z,5.70
2023-05-03T07:02:30.808Z,5.80
2023-05-03T07:04:37.919Z,5.90
2023-05-03T07:06:55.326Z,6.00
2023-05-03T07:09:01.156Z,6.10
2023-05-03T07:11:06.989Z,6.30
2023-05-03T07:13:14.423Z,6.40
2023-05-03T07:15:22.742Z,6.50
2023-05-03T07:17:29.808Z,6.60
2023-05-03T07:19:34.665Z,6.80
2023-05-03T07:21:40.747Z,6.70
2023-05-03T07:23:46.727Z,6.90
2023-05-03T07:25:55.233Z,7.00
2023-05-03T07:28:00.415Z,7.00
2023-05-03T07:30:05.723Z,7.20
2023-05-03T07:32:21.836Z,7.50
2023-05-03T07:34:26.958Z,7.60
2023-05-03T07:36:33.262Z,7.70
2023-05-03T07:38:40.583Z,7.90
2023-05-03T07:40:45.867Z,7.90
2023-05-03T07:42:52.307Z,7.80
2023-05-03T07:44:57.428Z,7.90
2023-05-03T07:47:02.474Z,7.90
2023-05-03T07:49:10.119Z,8.00
2023-05-03T07:51:16.349Z,8.20
2023-05-03T07:53:21.686Z,8.20
2023-05-03T07:55:28.501Z,8.10
2023-05-03T07:57:33.642Z,8.40
2023-05-03T07:59:39.128Z,8.40
2023-05-03T08:01:49.452Z,8.40
2023-05-03T08:03:56.124Z,8.50
2023-05-03T08:06:04.216Z,8.50
2023-05-03T08:08:09.429Z,8.60
2023-05-03T08:10:16.713Z,8.60
2023-05-03T08:12:22.016Z,8.70
2023-05-03T08:14:28.138Z,8.70
2023-05-03T08:16:33.417Z,8.70
2023-05-03T08:18:38.272Z,8.70
2023-05-03T08:20:43.808Z,8.70
2023-05-03T08:22:57.179Z,8.80
2023-05-03T08:25:04.748Z,8.80
2023-05-03T08:27:10.287Z,8.80
2023-05-03T08:29:15.285Z,9.00
2023-05-03T08:31:22.464Z,8.90
2023-05-03T08:33:28.183Z,8.90
2023-05-03T08:35:33.376Z,9.00
2023-05-03T08:37:44.239Z,9.10
2023-05-03T08:39:54.432Z,9.20
2023-05-03T08:42:00.489Z,9.10
2023-05-03T08:44:06.634Z,9.10
2023-05-03T08:46:18.023Z,9.10
2023-05-03T08:48:23.861Z,9.20
2023-05-03T08:50:29.696Z,9.20
2023-05-03T08:52:40.390Z,9.60
2023-05-03T08:54:47.195Z,9.60
2023-05-03T08:56:55.139Z,9.50
2023-05-03T08:59:07.914Z,9.70
2023-05-03T09:01:17.701Z,9.70
2023-05-03T09:03:25.362Z,9.80
2023-05-03T09:05:39.191Z,9.80
2023-05-03T09:07:45.610Z,9.90
2023-05-03T09:09:51.051Z,9.90
2023-05-03T09:11:59.459Z,9.90
2023-05-03T09:14:21.432Z,9.90
2023-05-03T09:16:27.618Z,10.10
2023-05-03T09:18:32.519Z,10.20
2023-05-03T09:20:40.221Z,10.00
2023-05-03T09:22:54.287Z,10.20
2023-05-03T09:25:00.814Z,10.10
2023-05-03T09:27:23.336Z,10.30
2023-05-03T09:29:37.344Z,10.40
2023-05-03T09:32:02.984Z,10.50
2023-05-03T09:34:26.389Z,10.40
2023-05-03T09:36:48.635Z,10.30
2023-05-03T09:38:54.214Z,10.50
2023-05-03T09:41:06.489Z,10.60
2023-05-03T09:45:26.342Z,10.70
2023-05-03T09:47:32.397Z,10.70
2023-05-03T09:49:37.824Z,11.00
2023-05-03T09:51:44.464Z,11.00
2023-05-03T09:53:59.049Z,10.80
2023-05-03T09:56:06.202Z,10.80
2023-05-03T09:58:11.235Z,10.90
2023-05-03T10:00:28.026Z,11.00
2023-05-03T10:02:35.040Z,11.20
2023-05-03T10:04:44.723Z,11.20
2023-05-03T10:06:51.804Z,11.10
2023-05-03T10:09:01.269Z,11.20
2023-05-03T10:11:12.295Z,11.30
2023-05-03T10:13:17.380Z,11.10
2023-05-03T10:15:26.095Z,11.30
2023-05-03T10:17:46.584Z,11.60
2023-05-03T10:19:55.190Z,11.60
2023-05-03T10:22:06.208Z,11.60
2023-05-03T10:24:16.482Z,11.80
2023-05-03T10:26:23.758Z,11.60
2023-05-03T10:28:28.846Z,11.70
2023-05-03T10:30:37.571Z,11.80
2023-05-03T10:32:44.677Z,11.80
2023-05-03T10:34:49.584Z,12.20
2023-05-03T10:36:59.962Z,11.90
2023-05-03T10:39:07.323Z,11.90
2023-05-03T10:41:12.592Z,11.90
2023-05-03T10:43:48.399Z,12.10
2023-05-03T10:45:58.933Z,11.80
2023-05-03T10:48:23.643Z,12.00
2023-05-03T10:50:30.482Z,12.20
2023-05-03T10:52:51.635Z,12.00
2023-05-03T10:54:56.489Z,12.00
2023-05-03T10:57:01.941Z,12.50
2023-05-03T10:59:07.233Z,12.50
2023-05-03T11:01:15.934Z,12.50
2023-05-03T11:03:37.766Z,12.60
2023-05-03T11:05:47.156Z,12.60
2023-05-03T11:07:52.212Z,12.60
2023-05-03T11:09:58.454Z,12.70
2023-05-03T11:12:07.833Z,12.70
2023-05-03T11:14:14.680Z,12.80
2023-05-03T11:16:36.871Z,13.00
2023-05-03T11:18:42.424Z,13.10
2023-05-03T11:20:49.230Z,13.60
2023-05-03T11:22:56.291Z,13.70
2023-05-03T11:25:04.277Z,13.60
2023-05-03T11:27:09.549Z,13.30
2023-05-03T11:29:18.914Z,13.20
2023-05-03T11:31:24.905Z,13.40
2023-05-03T11:33:33.491Z,13.50
2023-05-03T11:35:38.474Z,13.50
2023-05-03T11:37:43.524Z,13.60
2023-05-03T11:39:48.572Z,13.50
2023-05-03T11:42:05.683Z,13.80
2023-05-03T11:44:17.633Z,14.10
2023-05-03T11:46:27.766Z,14.20
2023-05-03T11:48:35.629Z,13.90
2023-05-03T11:50:48.564Z,13.90
2023-05-03T11:52:55.853Z,14.10
2023-05-03T11:55:01.482Z,14.10
2023-05-03T11:57:16.286Z,14.20
2023-05-03T11:59:37.487Z,14.40
2023-05-03T12:01:43.240Z,14.40
2023-05-03T12:03:51.442Z,14.40
2023-05-03T12:05:58.885Z,14.60
2023-05-03T12:08:05.464Z,15.20
2023-05-03T12:10:25.906Z,14.90
2023-05-03T12:12:36.315Z,14.70
2023-05-03T12:15:03.664Z,14.60
2023-05-03T12:17:11.493Z,14.80
2023-05-03T12:19:27.165Z,14.80
2023-05-03T12:24:01.311Z,15.30
2023-05-03T12:26:09.720Z,15.40
2023-05-03T12:28:20.197Z,15.80
2023-05-03T12:30:28.668Z,16.10
2023-05-03T12:32:37.357Z,16.70
2023-05-03T12:34:47.248Z,16.60
2023-05-03T12:36:54.126Z,16.80
2023-05-03T12:39:01.630Z,17.10
2023-05-03T12:41:09.173Z,16.80
2023-05-03T12:43:16.435Z,16.60
2023-05-03T12:45:21.996Z,17.30
2023-05-03T12:47:29.233Z,18.10
2023-05-03T12:49:38.015Z,17.50
2023-05-03T12:51:58.175Z,17.80
2023-05-03T12:54:10.362Z,18.30
2023-05-03T12:56:23.811Z,18.40
2023-05-03T13:00:40.999Z,17.80
2023-05-03T13:05:11.224Z,19.60
2023-05-03T13:07:28.076Z,20.20
2023-05-03T13:10:12.972Z,20.40
2023-05-03T13:12:10.503Z,19.00
2023-05-03T13:14:15.746Z,18.70
2023-05-03T13:16:24.844Z,18.60
2023-05-03T13:18:30.681Z,18.60
2023-05-03T13:20:37.834Z,19.80
2023-05-03T13:22:47.323Z,20.70
2023-05-03T13:24:54.495Z,20.30
2023-05-03T13:26:59.366Z,20.50
2023-05-03T13:29:05.142Z,19.20
2023-05-03T13:31:10.792Z,19.60
2023-05-03T13:33:16.082Z,19.10
2023-05-03T13:35:21.594Z,20.40
2023-05-03T13:37:26.432Z,21.50
2023-05-03T13:39:35.064Z,21.80
2023-05-03T13:41:42.319Z,21.80
2023-05-03T13:43:47.326Z,22.10
2023-05-03T13:45:52.902Z,22.30
2023-05-03T13:48:09.072Z,22.00
2023-05-03T13:50:24.059Z,21.70
2023-05-03T13:52:32.421Z,21.00
2023-05-03T13:54:40.390Z,21.60
2023-05-03T13:56:48.557Z,22.50
2023-05-03T13:58:53.397Z,21.90
2023-05-03T14:00:58.242Z,21.80
2023-05-03T14:03:06.780Z,22.50
2023-05-03T14:05:13.628Z,21.70
2023-05-03T14:07:20.406Z,20.90
2023-05-03T14:09:27.641Z,21.30
2023-05-03T14:11:35.140Z,21.00
2023-05-03T14:13:54.696Z,21.50
2023-05-03T14:16:02.528Z,21.90
2023-05-03T14:18:09.001Z,22.30
2023-05-03T14:20:17.630Z,22.40
2023-05-03T14:22:22.947Z,23.30
2023-05-03T14:24:28.943Z,24.00
2023-05-03T14:26:37.955Z,24.00
2023-05-03T14:28:43.645Z,22.90
2023-05-03T14:30:48.510Z,22.40
2023-05-03T14:32:56.272Z,22.50
2023-05-03T14:35:03.068Z,23.10
2023-05-03T14:37:08.165Z,21.40
2023-05-03T14:39:14.890Z,21.40
2023-05-03T14:41:21.887Z,22.90
2023-05-03T14:43:29.324Z,21.50
2023-05-03T14:45:36.618Z,21.80
2023-05-03T14:47:41.668Z,22.60
2023-05-03T14:49:47.858Z,23.20
2023-05-03T14:51:52.825Z,23.20
2023-05-03T14:53:58.881Z,24.00
2023-05-03T14:56:03.833Z,23.20
2023-05-03T14:58:10.152Z,23.80
2023-05-03T15:00:18.578Z,23.70
2023-05-03T15:02:26.198Z,23.10
2023-05-03T15:04:31.420Z,24.10
2023-05-03T15:06:39.166Z,23.90
2023-05-03T15:08:46.259Z,24.20
2023-05-03T15:10:53.158Z,24.50
2023-05-03T15:13:00.856Z,25.10
2023-05-03T15:15:06.399Z,24.70
2023-05-03T15:17:15.810Z,24.20
2023-05-03T15:19:21.171Z,24.20
2023-05-03T15:21:41.586Z,24.30
2023-05-03T15:23:47.292Z,23.60
2023-05-03T15:25:52.120Z,22.50
2023-05-03T15:27:57.264Z,22.90
2023-05-03T15:30:04.722Z,22.60
2023-05-03T15:32:09.769Z,23.50
2023-05-03T15:34:21.751Z,23.80
2023-05-03T15:36:29.848Z,23.80
2023-05-03T15:38:34.923Z,24.20
2023-05-03T15:40:41.789Z,21.70
2023-05-03T15:42:53.834Z,22.60
2023-05-03T15:44:58.752Z,23.40
2023-05-03T15:47:05.932Z,21.70
2023-05-03T15:49:16.123Z,22.10
2023-05-03T15:51:23.822Z,22.70
2023-05-03T15:53:29.264Z,22.40
2023-05-03T15:55:38.205Z,22.60
2023-05-03T15:57:45.621Z,22.60
2023-05-03T15:59:50.941Z,21.80
2023-05-03T16:01:57.301Z,22.30
2023-05-03T16:04:03.013Z,21.70
2023-05-03T16:06:15.847Z,21.40
2023-05-03T16:08:24.672Z,21.60
2023-05-03T16:10:30.321Z,21.70
2023-05-03T16:12:37.854Z,21.40
2023-05-03T16:14:44.471Z,21.90
2023-05-03T16:16:51.025Z,21.30
2023-05-03T16:18:58.358Z,21.70
2023-05-03T16:21:04.572Z,22.10
2023-05-03T16:23:09.505Z,21.50
2023-05-03T16:25:17.946Z,21.80
2023-05-03T16:27:27.727Z,21.20
2023-05-03T16:29:32.607Z,20.70
2023-05-03T16:31:37.770Z,20.80
2023-05-03T16:33:45.291Z,20.90
2023-05-03T16:35:52.776Z,20.60
2023-05-03T16:37:58.076Z,20.40
2023-05-03T16:40:06.000Z,20.80
2023-05-03T16:42:15.796Z,20.40
2023-05-03T16:44:21.436Z,20.60
2023-05-03T16:46:26.601Z,20.50
2023-05-03T16:48:32.974Z,21.30
2023-05-03T16:50:40.988Z,20.60
2023-05-03T16:52:48.468Z,21.20
2023-05-03T16:54:53.562Z,21.50
2023-05-03T16:56:58.647Z,21.60
2023-05-03T16:59:06.419Z,21.20
2023-05-03T17:01:11.778Z,22.60
2023-05-03T17:03:19.674Z,22.60
2023-05-03T17:05:26.312Z,23.40
2023-05-03T17:07:32.544Z,24.20
2023-05-03T17:09:38.366Z,23.70
2023-05-03T17:11:46.392Z,24.50
2023-05-03T17:13:51.219Z,23.80
2023-05-03T17:16:00.202Z,23.60
2023-05-03T17:18:05.460Z,22.20
2023-05-03T17:20:12.998Z,21.80
2023-05-03T17:22:20.524Z,21.70
2023-05-03T17:24:28.020Z,22.50
2023-05-03T17:26:34.567Z,23.30
2023-05-03T17:28:40.253Z,24.40
2023-05-03T17:30:45.128Z,25.00
2023-05-03T17:32:52.995Z,24.50
2023-05-03T17:34:58.284Z,25.00
2023-05-03T17:37:04.356Z,24.30
2023-05-03T17:39:09.188Z,23.30
2023-05-03T17:41:16.627Z,22.90
2023-05-03T17:43:22.630Z,22.70
2023-05-03T17:45:28.498Z,21.60
2023-05-03T17:47:33.852Z,20.60
2023-05-03T17:49:43.773Z,20.20
2023-05-03T17:52:02.811Z,19.90
2023-05-03T17:54:08.830Z,19.10
2023-05-03T17:56:17.829Z,19.40
2023-05-03T17:58:23.033Z,19.70
2023-05-03T18:00:28.201Z,19.40
2023-05-03T18:02:36.643Z,18.90
2023-05-03T18:04:44.352Z,18.70
2023-05-03T18:06:49.707Z,18.30
2023-05-03T18:08:54.528Z,18.20
2023-05-03T18:10:59.418Z,17.60
2023-05-03T18:13:04.664Z,17.50
2023-05-03T18:15:15.298Z,16.90
2023-05-03T18:17:20.758Z,17.30
2023-05-03T18:19:25.702Z,17.40
2023-05-03T18:21:37.516Z,17.10
2023-05-03T18:23:43.135Z,16.90
2023-05-03T18:25:49.520Z,17.00
2023-05-03T18:27:54.749Z,16.60
2023-05-03T18:29:59.606Z,16.30
2023-05-03T18:32:15.754Z,16.20
2023-05-03T18:34:20.579Z,16.10
2023-05-03T18:36:25.708Z,16.00
2023-05-03T18:38:33.092Z,15.80
2023-05-03T18:40:41.947Z,16.00
2023-05-03T18:42:47.258Z,15.90
2023-05-03T18:44:52.176Z,15.60
2023-05-03T18:47:00.181Z,15.80
2023-05-03T18:49:05.045Z,15.60
2023-05-03T18:51:12.755Z,15.60
2023-05-03T18:53:17.836Z,15.70
2023-05-03T18:55:25.626Z,15.90
2023-05-03T18:57:33.338Z,15.50
2023-05-03T18:59:48.859Z,15.50
2023-05-03T19:02:03.972Z,15.30
2023-05-03T19:04:11.850Z,15.20
2023-05-03T19:06:18.077Z,15.20
2023-05-03T19:08:24.276Z,15.10
2023-05-03T19:10:31.670Z,14.70
2023-05-03T19:12:42.015Z,14.80
2023-05-03T19:14:48.832Z,14.40
2023-05-03T19:16:56.192Z,14.80
2023-05-03T19:19:01.561Z,14.90
2023-05-03T19:21:07.593Z,14.60
2023-05-03T19:23:13.792Z,14.50
2023-05-03T19:25:21.472Z,14.50
2023-05-03T19:27:30.119Z,14.50
2023-05-03T19:29:34.988Z,14.50
2023-05-03T19:31:41.931Z,14.40
2023-05-03T19:33:46.973Z,14.40
2023-05-03T19:35:51.844Z,14.10
2023-05-03T19:37:57.949Z,13.50
2023-05-03T19:40:03.631Z,13.60
2023-05-03T19:42:10.032Z,13.60
2023-05-03T19:44:20.201Z,13.80
2023-05-03T19:46:25.470Z,13.30
2023-05-03T19:48:31.629Z,13.30
2023-05-03T19:50:38.547Z,13.50
2023-05-03T19:52:44.854Z,13.50
2023-05-03T19:54:51.063Z,13.40
2023-05-03T19:56:56.942Z,13.50
2023-05-03T19:59:02.436Z,13.40
2023-05-03T20:01:09.954Z,13.40
2023-05-03T20:03:16.790Z,13.50
2023-05-03T20:05:21.748Z,13.30
2023-05-03T20:07:28.901Z,13.20
2023-05-03T20:09:36.029Z,13.10
2023-05-03T20:11:43.744Z,13.20
2023-05-03T20:13:49.248Z,13.10
2023-05-03T20:15:54.255Z,13.20
2023-05-03T20:18:03.801Z,13.10
2023-05-03T20:20:12.334Z,13.10
2023-05-03T20:22:17.545Z,13.10
2023-05-03T20:24:26.636Z,12.90
2023-05-03T20:26:33.021Z,12.80
2023-05-03T20:28:38.160Z,12.70
2023-05-03T20:30:44.424Z,12.80
2023-05-03T20:32:50.190Z,11.70
2023-05-03T20:35:01.247Z,11.50
2023-05-03T20:37:07.295Z,12.00
2023-05-03T20:39:12.619Z,12.30
2023-05-03T20:41:18.383Z,12.30
2023-05-03T20:43:26.987Z,12.40
2023-05-03T20:45:34.520Z,12.40
2023-05-03T20:47:43.059Z,12.30
2023-05-03T20:49:49.726Z,12.30
2023-05-03T20:51:57.356Z,12.10
2023-05-03T20:54:06.179Z,12.20
2023-05-03T20:56:14.062Z,12.20
2023-05-03T20:58:19.200Z,11.80
2023-05-03T21:00:31.855Z,11.50
2023-05-03T21:02:38.894Z,11.40
2023-05-03T21:04:44.152Z,11.50
2023-05-03T21:06:48.961Z,11.50
2023-05-03T21:08:56.382Z,11.50
2023-05-03T21:11:01.998Z,11.00
2023-05-03T21:13:06.873Z,11.20
2023-05-03T21:15:16.982Z,11.00
2023-05-03T21:17:21.845Z,11.10
2023-05-03T21:19:27.817Z,11.20
2023-05-03T21:21:35.182Z,11.40
2023-05-03T21:23:40.050Z,11.30
2023-05-03T21:25:47.993Z,10.70
2023-05-03T21:27:53.352Z,10.60
2023-05-03T21:29:58.236Z,10.80
2023-05-03T21:32:04.117Z,10.70
2023-05-03T21:34:09.700Z,10.80
2023-05-03T21:36:16.828Z,10.80
2023-05-03T21:38:21.740Z,10.40
2023-05-03T21:40:29.954Z,10.20
2023-05-03T21:42:37.369Z,10.40
2023-05-03T21:44:43.132Z,10.30
2023-05-03T21:46:48.766Z,9.70
2023-05-03T21:48:53.671Z,10.00
2023-05-03T21:50:58.880Z,9.80
2023-05-03T21:53:04.023Z,10.00
2023-05-03T21:55:10.266Z,10.20
2023-05-03T21:57:16.014Z,10.00
2023-05-03T21:59:23.435Z,10.10
2023-05-03T22:01:31.512Z,9.80
2023-05-03T22:03:37.097Z,9.40
2023-05-03T22:05:47.945Z,9.50
2023-05-03T22:07:56.726Z,9.40
2023-05-03T22:10:01.702Z,9.60
2023-05-03T22:12:22.398Z,9.20
2023-05-03T22:14:31.828Z,8.60
2023-05-03T22:16:45.803Z,8.00
2023-05-03T22:18:52.043Z,8.70
2023-05-03T22:20:56.855Z,7.90
2023-05-03T22:23:01.726Z,8.20
2023-05-03T22:25:07.139Z,7.50
2023-05-03T22:27:15.857Z,8.30
2023-05-03T22:29:20.643Z,8.30
2023-05-03T22:31:30.296Z,8.40
2023-05-03T22:33:35.453Z,8.30
2023-05-03T22:35:45.038Z,8.40
2023-05-03T22:37:49.909Z,8.40
2023-05-03T22:39:56.051Z,8.00
2023-05-03T22:42:03.660Z,7.80
2023-05-03T22:44:08.663Z,7.90
2023-05-03T22:46:13.662Z,8.00
2023-05-03T22:48:21.515Z,8.40
2023-05-03T22:50:26.335Z,8.40
2023-05-03T22:52:31.215Z,8.30
2023-05-03T22:54:36.064Z,8.20
2023-05-03T22:56:40.928Z,8.40
2023-05-03T22:58:46.266Z,8.60
2023-05-03T23:00:51.416Z,8.70
2023-05-03T23:02:56.537Z,8.50
2023-05-03T23:05:04.066Z,8.60
2023-05-03T23:07:08.900Z,8.40
2023-05-03T23:09:13.886Z,8.30
2023-05-03T23:11:19.311Z,8.40
2023-05-03T23:13:26.181Z,8.30
2023-05-03T23:15:31.418Z,7.70
2023-05-03T23:17:38.082Z,8.10
2023-05-03T23:19:43.872Z,8.20
2023-05-03T23:21:51.332Z,8.10
2023-05-03T23:23:59.520Z,7.80
2023-05-03T23:26:04.373Z,8.00
2023-05-03T23:28:09.746Z,7.90
2023-05-03T23:30:16.673Z,7.90
2023-05-03T23:32:22.121Z,7.80
2023-05-03T23:34:27.581Z,7.80
2023-05-03T23:36:36.746Z,7.60
2023-05-03T23:38:44.194Z,7.60
2023-05-03T23:40:49.135Z,7.70
2023-05-03T23:42:55.498Z,7.70
2023-05-03T23:45:00.363Z,7.50
2023-05-03T23:47:06.286Z,7.50
2023-05-03T23:49:12.668Z,7.70
2023-05-03T23:51:17.524Z,7.80
2023-05-03T23:53:28.106Z,7.80
2023-05-03T23:55:38.810Z,7.50
2023-05-03T23:57:44.878Z,7.30
2023-05-03T23:59:49.977Z,7.50
